This is the latest recevied weather packets stored in our database for station/object N9CQS-15. If no packets are shown the sender has not sent any weather packets the latest 10 day(s).
| Time | Temp. | Humidity | Pressure | Rain* | Wind** | Luminosity | Snow |
|---|---|---|---|---|---|---|---|
| 1777921742 | 22.78° C | 55% | 1004.2 hPa | 0 mm | - | - | - |
| 1777921141 | 22.78° C | 57% | 1004.3 hPa | 0 mm | - | - | - |
| 1777920542 | 23.33° C | 57% | 1004.4 hPa | 0 mm | - | - | - |
| 1777919942 | 22.22° C | 57% | 1004.4 hPa | 0 mm | - | - | - |
| 1777919341 | 22.78° C | 56% | 1004.2 hPa | 0 mm | - | - | - |
| 1777918741 | 22.78° C | 56% | 1004.4 hPa | 0 mm | - | - | - |
| 1777918142 | 20° C | 67% | 1004.8 hPa | 0 mm | - | - | - |
| 1777917542 | 17.78° C | 73% | 1005.2 hPa | 0 mm | - | - | - |
| 1777916942 | 17.78° C | 71% | 1005.5 hPa | 0 mm | - | - | - |
| 1777916341 | 17.78° C | 69% | 1005.4 hPa | 0 mm | - | - | - |
| 1777915741 | 17.22° C | 71% | 1005.5 hPa | 0 mm | - | - | - |
| 1777915142 | 16.67° C | 72% | 1005.7 hPa | 0 mm | - | - | - |
| 1777914542 | 16.67° C | 71% | 1006 hPa | 0 mm | - | - | - |
| 1777913942 | 17.22° C | 67% | 1006 hPa | 0 mm | - | - | - |
| 1777913342 | 18.33° C | 61% | 1005.9 hPa | 0 mm | - | - | - |
| 1777912741 | 18.89° C | 59% | 1005.3 hPa | 0 mm | - | - | - |
| 1777912142 | 19.44° C | 57% | 1005.5 hPa | 0 mm | - | - | - |
| 1777911541 | 20.56° C | 54% | 1005.3 hPa | 0 mm | - | - | - |
| 1777910942 | 21.11° C | 54% | 1005.2 hPa | 0 mm | - | - | - |
| 1777910342 | 20° C | 55% | 1005.2 hPa | 0 mm | - | - | - |
| 1777909742 | 20.56° C | 54% | 1005.2 hPa | 0 mm | - | - | - |
| 1777909142 | 20° C | 55% | 1005 hPa | 0 mm | - | - | - |
| 1777908541 | 20° C | 57% | 1004.9 hPa | 0 mm | - | - | - |
| 1777907942 | 19.44° C | 58% | 1005.1 hPa | 0 mm | - | - | - |
| 1777907341 | 18.89° C | 60% | 1005.2 hPa | 0 mm | - | - | - |
* Rain latest hour (hover to see other rain measurements)
** Current wind speed in m/s (hover to see current wind gust speed)